TUI7041 LGSK-LFMN
Flight info
| Callsign | TUI7041 |
|---|---|
| Flight time | 2h 21m |
| Altitude | 36000 |
| Route | EVIKO DCT AGH UV651 YNN UL613 VJOSA DCT GOKEL DCT ABADI/N0395F180 P92 KAPPO M603 PNZ M729 MEDAL Q160 PODOX T378 DOBIM R16 KERIT |
| Aircraft | B738/M-SDE2E3FGHIRWXY/LB1 |
Departure
| Time | 2026-05-07 14:42 |
|---|---|
| Airport | Skiathos Island National Airport (LGSK) |
Arrival
| Time | 2026-05-07 17:04 |
|---|---|
| Airport | Nice-Côte d'Azur Airport (LFMN) |
| Time | Latitude | Longitude | Altitude | Speed | Heading |
|---|---|---|---|---|---|
| 2026-05-07 14:24 | 39.17649 | 23.50211 | 34 ft | 0 kts | 291° |
| 2026-05-07 14:39 | 39.17650 | 23.50200 | 33 ft | 2 kts | 259° |
| 2026-05-07 14:40 | 39.17635 | 23.50200 | 33 ft | 2 kts | 166° |
| 2026-05-07 14:40 | 39.17612 | 23.50205 | 34 ft | 6 kts | 173° |
| 2026-05-07 14:40 | 39.17560 | 23.50245 | 34 ft | 12 kts | 131° |
| 2026-05-07 14:40 | 39.17469 | 23.50252 | 32 ft | 17 kts | 199° |
| 2026-05-07 14:41 | 39.17352 | 23.50198 | 27 ft | 20 kts | 199° |
| 2026-05-07 14:41 | 39.17188 | 23.50125 | 20 ft | 27 kts | 203° |
| 2026-05-07 14:41 | 39.17057 | 23.50052 | 16 ft | 1 kts | 179° |
| 2026-05-07 14:41 | 39.17057 | 23.50065 | 17 ft | 1 kts | 66° |
| 2026-05-07 14:42 | 39.17099 | 23.50085 | 22 ft | 29 kts | 20° |
| 2026-05-07 14:42 | 39.17554 | 23.50287 | 34 ft | 109 kts | 19° |
| 2026-05-07 14:42 | 39.18500 | 23.50708 | 92 ft | 174 kts | 19° |
| 2026-05-07 14:42 | 39.19568 | 23.51181 | 824 ft | 182 kts | 20° |
| 2026-05-07 14:43 | 39.20729 | 23.51705 | 2071 ft | 175 kts | 20° |
| 2026-05-07 14:43 | 39.21828 | 23.52613 | 2539 ft | 208 kts | 55° |
| 2026-05-07 14:43 | 39.22186 | 23.54435 | 2955 ft | 220 kts | 100° |
| 2026-05-07 14:43 | 39.21500 | 23.56199 | 3432 ft | 227 kts | 131° |
| 2026-05-07 14:44 | 39.20461 | 23.57771 | 4052 ft | 233 kts | 130° |
| 2026-05-07 14:44 | 39.19438 | 23.59394 | 4854 ft | 234 kts | 130° |
| 2026-05-07 14:44 | 39.18402 | 23.61035 | 5710 ft | 239 kts | 129° |
| 2026-05-07 14:44 | 39.17260 | 23.62600 | 6372 ft | 247 kts | 150° |
| 2026-05-07 14:45 | 39.15580 | 23.63179 | 6625 ft | 267 kts | 187° |
| 2026-05-07 14:45 | 39.13848 | 23.62256 | 7275 ft | 271 kts | 223° |
| 2026-05-07 14:45 | 39.12863 | 23.60257 | 8007 ft | 272 kts | 257° |
| 2026-05-07 14:45 | 39.12923 | 23.57848 | 8754 ft | 275 kts | 290° |
| 2026-05-07 14:46 | 39.13970 | 23.55798 | 9580 ft | 277 kts | 311° |
| 2026-05-07 14:46 | 39.15350 | 23.54047 | 10332 ft | 281 kts | 315° |
| 2026-05-07 14:46 | 39.16781 | 23.52210 | 10607 ft | 302 kts | 309° |
| 2026-05-07 14:46 | 39.17951 | 23.49866 | 10769 ft | 323 kts | 291° |
| 2026-05-07 14:47 | 39.18606 | 23.47009 | 10940 ft | 343 kts | 280° |
| 2026-05-07 14:47 | 39.18942 | 23.43872 | 11106 ft | 364 kts | 275° |
| 2026-05-07 14:47 | 39.19130 | 23.40575 | 11519 ft | 373 kts | 273° |
| 2026-05-07 14:47 | 39.19265 | 23.37233 | 12185 ft | 374 kts | 272° |
| 2026-05-07 14:48 | 39.19388 | 23.33881 | 12908 ft | 374 kts | 272° |
| 2026-05-07 14:48 | 39.19513 | 23.30521 | 13597 ft | 376 kts | 273° |
| 2026-05-07 14:48 | 39.19641 | 23.27160 | 14209 ft | 377 kts | 273° |
| 2026-05-07 14:48 | 39.19779 | 23.23761 | 14707 ft | 381 kts | 273° |
| 2026-05-07 14:49 | 39.19924 | 23.20334 | 15255 ft | 384 kts | 273° |
| 2026-05-07 14:49 | 39.20071 | 23.16892 | 15839 ft | 385 kts | 273° |
| 2026-05-07 14:49 | 39.20217 | 23.13439 | 16397 ft | 387 kts | 273° |
| 2026-05-07 14:49 | 39.20364 | 23.09954 | 16904 ft | 390 kts | 273° |
| 2026-05-07 14:50 | 39.20509 | 23.06498 | 17401 ft | 393 kts | 273° |
| 2026-05-07 14:50 | 39.20655 | 23.02972 | 17907 ft | 395 kts | 273° |
| 2026-05-07 14:50 | 39.20801 | 22.99423 | 18418 ft | 397 kts | 273° |
| 2026-05-07 14:50 | 39.20947 | 22.95838 | 18838 ft | 400 kts | 273° |
| 2026-05-07 14:51 | 39.21093 | 22.92241 | 19236 ft | 403 kts | 273° |
| 2026-05-07 14:51 | 39.21239 | 22.88624 | 19639 ft | 406 kts | 273° |
| 2026-05-07 14:51 | 39.21384 | 22.84982 | 20040 ft | 408 kts | 273° |
| 2026-05-07 14:51 | 39.21553 | 22.81314 | 20428 ft | 411 kts | 275° |
| 2026-05-07 14:52 | 39.22027 | 22.77666 | 20810 ft | 415 kts | 283° |
| 2026-05-07 14:52 | 39.22906 | 22.74106 | 21213 ft | 417 kts | 288° |
| 2026-05-07 14:52 | 39.23849 | 22.70551 | 21600 ft | 420 kts | 288° |
| 2026-05-07 14:52 | 39.24791 | 22.66972 | 21955 ft | 422 kts | 287° |
| 2026-05-07 14:53 | 39.25731 | 22.63357 | 22308 ft | 425 kts | 287° |
| 2026-05-07 14:53 | 39.26667 | 22.59719 | 22641 ft | 428 kts | 287° |
| 2026-05-07 14:53 | 39.27591 | 22.56101 | 22966 ft | 431 kts | 287° |
| 2026-05-07 14:53 | 39.28530 | 22.52406 | 23305 ft | 433 kts | 287° |
| 2026-05-07 14:54 | 39.29472 | 22.48701 | 23639 ft | 435 kts | 287° |
| 2026-05-07 14:54 | 39.30417 | 22.44978 | 23926 ft | 437 kts | 287° |
| 2026-05-07 14:54 | 39.31363 | 22.41247 | 24244 ft | 438 kts | 287° |
| 2026-05-07 14:54 | 39.32311 | 22.37491 | 24589 ft | 438 kts | 287° |
| 2026-05-07 14:55 | 39.33250 | 22.33742 | 24885 ft | 439 kts | 287° |
| 2026-05-07 14:55 | 39.34191 | 22.29976 | 25184 ft | 440 kts | 287° |
| 2026-05-07 14:55 | 39.35116 | 22.26262 | 25483 ft | 441 kts | 287° |
| 2026-05-07 14:55 | 39.36055 | 22.22489 | 25794 ft | 441 kts | 287° |
| 2026-05-07 14:56 | 39.36994 | 22.18714 | 26115 ft | 440 kts | 287° |
| 2026-05-07 14:56 | 39.37926 | 22.14962 | 26577 ft | 436 kts | 287° |
| 2026-05-07 14:56 | 39.38848 | 22.11245 | 27105 ft | 431 kts | 287° |
| 2026-05-07 14:56 | 39.39758 | 22.07570 | 27627 ft | 427 kts | 287° |
| 2026-05-07 14:57 | 39.40355 | 22.05157 | 27946 ft | 425 kts | 287° |
| 2026-05-07 14:57 | 39.41255 | 22.01516 | 28378 ft | 423 kts | 287° |
| 2026-05-07 14:57 | 39.42147 | 21.97899 | 28832 ft | 420 kts | 287° |
| 2026-05-07 14:57 | 39.43029 | 21.94319 | 29341 ft | 416 kts | 287° |
| 2026-05-07 14:58 | 39.43904 | 21.90757 | 29873 ft | 412 kts | 287° |
| 2026-05-07 14:58 | 39.44768 | 21.87239 | 30348 ft | 408 kts | 287° |
| 2026-05-07 14:58 | 39.45625 | 21.83747 | 30717 ft | 406 kts | 287° |
| 2026-05-07 14:58 | 39.46477 | 21.80265 | 31062 ft | 405 kts | 287° |
| 2026-05-07 14:59 | 39.47313 | 21.76848 | 31408 ft | 402 kts | 287° |
| 2026-05-07 14:59 | 39.48154 | 21.73401 | 31773 ft | 400 kts | 287° |
| 2026-05-07 14:59 | 39.48988 | 21.69979 | 32171 ft | 397 kts | 287° |
| 2026-05-07 14:59 | 39.49815 | 21.66584 | 32570 ft | 393 kts | 288° |
| 2026-05-07 15:00 | 39.50633 | 21.63216 | 32967 ft | 390 kts | 288° |
| 2026-05-07 15:00 | 39.51443 | 21.59880 | 33386 ft | 386 kts | 288° |
| 2026-05-07 15:00 | 39.52238 | 21.56600 | 33978 ft | 377 kts | 288° |
| 2026-05-07 15:00 | 39.53017 | 21.53376 | 34385 ft | 373 kts | 288° |
| 2026-05-07 15:01 | 39.53787 | 21.50192 | 34781 ft | 368 kts | 288° |
| 2026-05-07 15:01 | 39.54552 | 21.47023 | 35087 ft | 366 kts | 288° |
| 2026-05-07 15:01 | 39.56069 | 21.40724 | 35265 ft | 370 kts | 288° |
| 2026-05-07 15:02 | 39.56839 | 21.37527 | 35386 ft | 372 kts | 288° |
| 2026-05-07 15:02 | 39.57609 | 21.34320 | 35527 ft | 373 kts | 288° |
| 2026-05-07 15:02 | 39.58380 | 21.31108 | 35702 ft | 373 kts | 288° |
| 2026-05-07 15:02 | 39.59149 | 21.27899 | 35905 ft | 371 kts | 288° |
| 2026-05-07 15:03 | 39.59906 | 21.24729 | 36132 ft | 366 kts | 288° |
| 2026-05-07 15:03 | 39.60660 | 21.21569 | 36143 ft | 367 kts | 288° |
| 2026-05-07 15:03 | 39.61420 | 21.18395 | 36027 ft | 369 kts | 288° |
| 2026-05-07 15:03 | 39.62176 | 21.15227 | 36123 ft | 368 kts | 287° |
| 2026-05-07 15:04 | 39.63680 | 21.08889 | 36088 ft | 370 kts | 288° |
| 2026-05-07 15:04 | 39.65187 | 21.02526 | 36120 ft | 368 kts | 288° |
| 2026-05-07 15:05 | 39.66685 | 20.96189 | 36115 ft | 365 kts | 288° |
| 2026-05-07 15:05 | 39.68170 | 20.89892 | 36097 ft | 364 kts | 288° |
| 2026-05-07 15:06 | 39.69915 | 20.83749 | 36105 ft | 362 kts | 295° |
| 2026-05-07 15:06 | 39.72559 | 20.78169 | 36104 ft | 365 kts | 305° |
| 2026-05-07 15:07 | 39.75834 | 20.73171 | 36101 ft | 366 kts | 306° |
| 2026-05-07 15:07 | 39.79167 | 20.68158 | 36098 ft | 365 kts | 306° |
| 2026-05-07 15:08 | 39.82479 | 20.63141 | 36110 ft | 366 kts | 306° |
| 2026-05-07 15:08 | 39.85795 | 20.58090 | 36102 ft | 367 kts | 306° |
| 2026-05-07 15:09 | 39.89096 | 20.53049 | 36104 ft | 368 kts | 306° |
| 2026-05-07 15:09 | 39.92430 | 20.47947 | 36109 ft | 371 kts | 306° |
| 2026-05-07 15:10 | 39.95789 | 20.42803 | 36096 ft | 373 kts | 306° |
| 2026-05-07 15:10 | 39.98980 | 20.37479 | 36079 ft | 372 kts | 298° |
| 2026-05-07 15:11 | 40.01593 | 20.31680 | 36088 ft | 368 kts | 297° |
| 2026-05-07 15:11 | 40.04166 | 20.25939 | 36085 ft | 367 kts | 297° |
| 2026-05-07 15:12 | 40.06746 | 20.20191 | 36088 ft | 366 kts | 297° |
| 2026-05-07 15:12 | 40.09311 | 20.14480 | 36081 ft | 366 kts | 297° |
| 2026-05-07 15:13 | 40.11890 | 20.08733 | 36072 ft | 366 kts | 297° |
| 2026-05-07 15:13 | 40.14461 | 20.02994 | 36062 ft | 367 kts | 297° |
| 2026-05-07 15:14 | 40.17038 | 19.97230 | 36077 ft | 367 kts | 297° |
| 2026-05-07 15:14 | 40.19618 | 19.91450 | 36062 ft | 369 kts | 297° |
| 2026-05-07 15:15 | 40.22203 | 19.85650 | 36061 ft | 369 kts | 296° |
| 2026-05-07 15:15 | 40.24766 | 19.79887 | 36058 ft | 368 kts | 296° |
| 2026-05-07 15:16 | 40.27336 | 19.74101 | 36055 ft | 368 kts | 296° |
| 2026-05-07 15:16 | 40.29915 | 19.68280 | 36072 ft | 370 kts | 296° |
| 2026-05-07 15:17 | 40.32503 | 19.62423 | 36040 ft | 372 kts | 296° |
| 2026-05-07 15:17 | 40.35089 | 19.56565 | 36035 ft | 370 kts | 296° |
| 2026-05-07 15:18 | 40.37627 | 19.50807 | 36075 ft | 368 kts | 296° |
| 2026-05-07 15:18 | 40.40201 | 19.44951 | 36048 ft | 371 kts | 296° |
| 2026-05-07 15:19 | 40.42781 | 19.39070 | 36064 ft | 372 kts | 296° |
| 2026-05-07 15:19 | 40.45363 | 19.33176 | 36048 ft | 373 kts | 296° |
| 2026-05-07 15:20 | 40.47942 | 19.27278 | 36049 ft | 372 kts | 296° |
| 2026-05-07 15:20 | 40.50521 | 19.21368 | 36058 ft | 372 kts | 295° |
| 2026-05-07 15:21 | 40.53088 | 19.15472 | 36057 ft | 371 kts | 295° |
| 2026-05-07 15:21 | 40.55650 | 19.09575 | 36063 ft | 371 kts | 295° |
| 2026-05-07 15:22 | 40.58197 | 19.03705 | 36055 ft | 371 kts | 295° |
| 2026-05-07 15:22 | 40.60764 | 18.97796 | 36054 ft | 371 kts | 295° |
| 2026-05-07 15:23 | 40.63360 | 18.91908 | 36056 ft | 372 kts | 295° |
| 2026-05-07 15:23 | 40.65959 | 18.86007 | 36051 ft | 372 kts | 295° |
| 2026-05-07 15:24 | 40.68551 | 18.80101 | 36051 ft | 372 kts | 295° |
| 2026-05-07 15:24 | 40.71126 | 18.74222 | 36053 ft | 372 kts | 295° |
| 2026-05-07 15:25 | 40.73560 | 18.68226 | 36034 ft | 368 kts | 285° |
| 2026-05-07 15:25 | 40.74335 | 18.61592 | 36053 ft | 366 kts | 272° |
| 2026-05-07 15:26 | 40.74180 | 18.58230 | 36037 ft | 370 kts | 261° |
| 2026-05-07 15:26 | 40.73510 | 18.54940 | 36056 ft | 372 kts | 258° |
| 2026-05-07 15:26 | 40.72025 | 18.48452 | 36043 ft | 372 kts | 258° |
| 2026-05-07 15:27 | 40.70530 | 18.41924 | 36038 ft | 371 kts | 258° |
| 2026-05-07 15:27 | 40.69052 | 18.35391 | 36035 ft | 370 kts | 258° |
| 2026-05-07 15:28 | 40.67587 | 18.28890 | 36035 ft | 369 kts | 258° |
| 2026-05-07 15:28 | 40.66125 | 18.22415 | 36029 ft | 368 kts | 258° |
| 2026-05-07 15:29 | 40.64665 | 18.15967 | 36028 ft | 367 kts | 258° |
| 2026-05-07 15:29 | 40.63215 | 18.09577 | 36022 ft | 366 kts | 258° |
| 2026-05-07 15:30 | 40.61773 | 18.03162 | 36015 ft | 363 kts | 261° |
| 2026-05-07 15:30 | 40.61097 | 17.96617 | 36026 ft | 358 kts | 271° |
| 2026-05-07 15:31 | 40.61136 | 17.90074 | 36019 ft | 358 kts | 271° |
| 2026-05-07 15:31 | 40.61199 | 17.83532 | 36019 ft | 357 kts | 271° |
| 2026-05-07 15:32 | 40.61250 | 17.76983 | 36026 ft | 357 kts | 271° |
| 2026-05-07 15:32 | 40.61291 | 17.70483 | 36018 ft | 357 kts | 271° |
| 2026-05-07 15:33 | 40.61326 | 17.63963 | 36043 ft | 356 kts | 271° |
| 2026-05-07 15:33 | 40.61356 | 17.57403 | 36048 ft | 356 kts | 271° |
| 2026-05-07 15:34 | 40.61381 | 17.50928 | 36048 ft | 356 kts | 271° |
| 2026-05-07 15:34 | 40.61404 | 17.44416 | 36049 ft | 355 kts | 270° |
| 2026-05-07 15:35 | 40.61422 | 17.37901 | 36048 ft | 356 kts | 270° |
| 2026-05-07 15:35 | 40.61437 | 17.31395 | 36047 ft | 355 kts | 270° |
| 2026-05-07 15:36 | 40.61448 | 17.24877 | 36044 ft | 355 kts | 270° |
| 2026-05-07 15:36 | 40.61455 | 17.18409 | 36039 ft | 355 kts | 270° |
| 2026-05-07 15:37 | 40.61459 | 17.11900 | 36046 ft | 355 kts | 270° |
| 2026-05-07 15:37 | 40.61459 | 17.05394 | 36037 ft | 355 kts | 270° |
| 2026-05-07 15:38 | 40.61455 | 16.98937 | 36039 ft | 355 kts | 270° |
| 2026-05-07 15:38 | 40.61448 | 16.92452 | 36038 ft | 354 kts | 270° |
| 2026-05-07 15:39 | 40.61438 | 16.85973 | 36036 ft | 354 kts | 270° |
| 2026-05-07 15:39 | 40.61423 | 16.79503 | 36041 ft | 354 kts | 270° |
| 2026-05-07 15:40 | 40.61405 | 16.73026 | 36033 ft | 354 kts | 269° |
| 2026-05-07 15:40 | 40.61384 | 16.66545 | 36070 ft | 354 kts | 269° |
| 2026-05-07 15:41 | 40.61358 | 16.60064 | 36070 ft | 354 kts | 269° |
| 2026-05-07 15:41 | 40.61330 | 16.53619 | 36063 ft | 354 kts | 269° |
| 2026-05-07 15:42 | 40.61297 | 16.47148 | 36052 ft | 354 kts | 269° |
| 2026-05-07 15:42 | 40.61261 | 16.40683 | 36040 ft | 353 kts | 269° |
| 2026-05-07 15:43 | 40.61221 | 16.34208 | 36021 ft | 353 kts | 269° |
| 2026-05-07 15:43 | 40.61186 | 16.28821 | 36020 ft | 353 kts | 269° |
| 2026-05-07 15:44 | 40.61140 | 16.22349 | 36005 ft | 354 kts | 268° |
| 2026-05-07 15:44 | 40.61089 | 16.15875 | 36007 ft | 353 kts | 269° |
| 2026-05-07 15:45 | 40.61036 | 16.09415 | 36003 ft | 353 kts | 268° |
| 2026-05-07 15:45 | 40.60979 | 16.02957 | 36001 ft | 352 kts | 268° |
| 2026-05-07 15:46 | 40.60888 | 15.93328 | 35991 ft | 351 kts | 268° |
| 2026-05-07 15:47 | 40.60822 | 15.86902 | 35995 ft | 351 kts | 268° |
| 2026-05-07 15:47 | 40.60752 | 15.80467 | 35976 ft | 352 kts | 268° |
| 2026-05-07 15:48 | 40.60679 | 15.74010 | 35982 ft | 353 kts | 268° |
| 2026-05-07 15:48 | 40.60603 | 15.67560 | 35968 ft | 352 kts | 268° |
| 2026-05-07 15:49 | 40.60523 | 15.61104 | 35957 ft | 353 kts | 268° |
| 2026-05-07 15:49 | 40.60440 | 15.54694 | 35961 ft | 352 kts | 268° |
| 2026-05-07 15:50 | 40.60353 | 15.48246 | 35950 ft | 352 kts | 268° |
| 2026-05-07 15:50 | 40.60261 | 15.41794 | 35954 ft | 353 kts | 267° |
| 2026-05-07 15:51 | 40.60166 | 15.35328 | 35939 ft | 353 kts | 267° |
| 2026-05-07 15:51 | 40.60068 | 15.28867 | 35941 ft | 353 kts | 267° |
| 2026-05-07 15:52 | 40.59967 | 15.22440 | 35935 ft | 353 kts | 267° |
| 2026-05-07 15:52 | 40.59861 | 15.15967 | 35919 ft | 354 kts | 267° |
| 2026-05-07 15:53 | 40.59752 | 15.09503 | 35921 ft | 353 kts | 267° |
| 2026-05-07 15:53 | 40.59640 | 15.03050 | 35912 ft | 353 kts | 266° |
| 2026-05-07 15:54 | 40.59523 | 14.96598 | 35915 ft | 352 kts | 266° |
| 2026-05-07 15:54 | 40.59404 | 14.90147 | 35913 ft | 352 kts | 266° |
| 2026-05-07 15:55 | 40.59281 | 14.83734 | 35914 ft | 352 kts | 266° |
| 2026-05-07 15:55 | 40.59155 | 14.77291 | 35914 ft | 352 kts | 266° |
| 2026-05-07 15:56 | 40.59024 | 14.70846 | 35914 ft | 352 kts | 266° |
| 2026-05-07 15:56 | 40.58891 | 14.64410 | 35912 ft | 352 kts | 266° |
| 2026-05-07 15:57 | 40.58753 | 14.57970 | 35913 ft | 352 kts | 266° |
| 2026-05-07 15:57 | 40.58612 | 14.51516 | 35914 ft | 352 kts | 266° |
| 2026-05-07 15:58 | 40.58470 | 14.45107 | 35917 ft | 352 kts | 266° |
| 2026-05-07 15:58 | 40.58321 | 14.38657 | 35919 ft | 352 kts | 265° |
| 2026-05-07 15:59 | 40.58704 | 14.32239 | 35939 ft | 356 kts | 275° |
| 2026-05-07 15:59 | 40.60050 | 14.25859 | 35921 ft | 363 kts | 281° |
| 2026-05-07 16:00 | 40.61631 | 14.19534 | 35926 ft | 364 kts | 281° |
| 2026-05-07 16:00 | 40.63205 | 14.13196 | 35928 ft | 364 kts | 281° |
| 2026-05-07 16:01 | 40.64759 | 14.06857 | 35926 ft | 364 kts | 280° |
| 2026-05-07 16:01 | 40.66306 | 14.00530 | 35927 ft | 365 kts | 280° |
| 2026-05-07 16:02 | 40.67866 | 13.94154 | 35925 ft | 366 kts | 280° |
| 2026-05-07 16:02 | 40.69422 | 13.87757 | 35921 ft | 367 kts | 280° |
| 2026-05-07 16:03 | 40.70964 | 13.81347 | 35924 ft | 367 kts | 280° |
| 2026-05-07 16:03 | 40.72505 | 13.74919 | 35928 ft | 368 kts | 280° |
| 2026-05-07 16:04 | 40.74048 | 13.68474 | 35930 ft | 368 kts | 280° |
| 2026-05-07 16:04 | 40.75591 | 13.62016 | 35930 ft | 369 kts | 280° |
| 2026-05-07 16:05 | 40.77135 | 13.55538 | 35935 ft | 370 kts | 280° |
| 2026-05-07 16:05 | 40.78666 | 13.49096 | 35937 ft | 371 kts | 280° |
| 2026-05-07 16:06 | 40.80206 | 13.42596 | 35937 ft | 371 kts | 280° |
| 2026-05-07 16:06 | 40.81748 | 13.36073 | 35936 ft | 372 kts | 280° |
| 2026-05-07 16:07 | 40.83289 | 13.29536 | 35935 ft | 373 kts | 280° |
| 2026-05-07 16:07 | 40.84831 | 13.22978 | 35938 ft | 374 kts | 280° |
| 2026-05-07 16:08 | 40.86371 | 13.16405 | 35939 ft | 375 kts | 280° |
| 2026-05-07 16:08 | 40.87915 | 13.09808 | 35945 ft | 376 kts | 280° |
| 2026-05-07 16:09 | 40.89457 | 13.03193 | 35946 ft | 377 kts | 280° |
| 2026-05-07 16:09 | 40.91524 | 12.96737 | 35955 ft | 389 kts | 291° |
| 2026-05-07 16:10 | 40.94698 | 12.90841 | 35942 ft | 406 kts | 303° |
| 2026-05-07 16:10 | 40.98659 | 12.85464 | 35952 ft | 409 kts | 304° |
| 2026-05-07 16:11 | 41.02664 | 12.80102 | 35947 ft | 409 kts | 304° |
| 2026-05-07 16:11 | 41.06651 | 12.74710 | 35947 ft | 409 kts | 304° |
| 2026-05-07 16:12 | 41.10624 | 12.69299 | 35948 ft | 409 kts | 304° |
| 2026-05-07 16:12 | 41.14577 | 12.63902 | 35949 ft | 410 kts | 304° |
| 2026-05-07 16:13 | 41.18550 | 12.58470 | 35951 ft | 410 kts | 304° |
| 2026-05-07 16:13 | 41.22528 | 12.53020 | 35949 ft | 411 kts | 304° |
| 2026-05-07 16:14 | 41.26517 | 12.47558 | 35952 ft | 412 kts | 304° |
| 2026-05-07 16:14 | 41.30518 | 12.42080 | 35949 ft | 413 kts | 304° |
| 2026-05-07 16:15 | 41.34497 | 12.36622 | 35951 ft | 414 kts | 304° |
| 2026-05-07 16:15 | 41.38506 | 12.31113 | 35957 ft | 414 kts | 304° |
| 2026-05-07 16:16 | 41.42525 | 12.25582 | 35949 ft | 415 kts | 304° |
| 2026-05-07 16:16 | 41.46548 | 12.20036 | 35969 ft | 416 kts | 304° |
| 2026-05-07 16:17 | 41.50552 | 12.14499 | 35961 ft | 417 kts | 304° |
| 2026-05-07 16:17 | 41.54584 | 12.08900 | 35950 ft | 418 kts | 304° |
| 2026-05-07 16:18 | 41.58625 | 12.03279 | 35953 ft | 420 kts | 304° |
| 2026-05-07 16:18 | 41.62677 | 11.97636 | 35950 ft | 421 kts | 304° |
| 2026-05-07 16:19 | 41.66743 | 11.91967 | 35958 ft | 422 kts | 304° |
| 2026-05-07 16:19 | 41.70785 | 11.86315 | 35958 ft | 424 kts | 304° |
| 2026-05-07 16:20 | 41.74863 | 11.80604 | 35988 ft | 425 kts | 304° |
| 2026-05-07 16:20 | 41.78951 | 11.74871 | 35983 ft | 426 kts | 304° |
| 2026-05-07 16:21 | 41.83043 | 11.69115 | 35970 ft | 427 kts | 304° |
| 2026-05-07 16:21 | 41.87140 | 11.63334 | 35966 ft | 427 kts | 304° |
| 2026-05-07 16:22 | 41.91238 | 11.57544 | 35969 ft | 427 kts | 304° |
| 2026-05-07 16:22 | 41.95334 | 11.51747 | 35973 ft | 428 kts | 304° |
| 2026-05-07 16:23 | 41.99405 | 11.45978 | 35959 ft | 428 kts | 304° |
| 2026-05-07 16:23 | 42.03462 | 11.40135 | 35964 ft | 423 kts | 300° |
| 2026-05-07 16:24 | 42.06506 | 11.33566 | 35971 ft | 407 kts | 285° |
| 2026-05-07 16:24 | 42.08504 | 11.26476 | 35974 ft | 405 kts | 283° |
| 2026-05-07 16:25 | 42.10476 | 11.19358 | 35975 ft | 406 kts | 283° |
| 2026-05-07 16:25 | 42.12477 | 11.12221 | 35971 ft | 407 kts | 284° |
| 2026-05-07 16:26 | 42.14487 | 11.05078 | 35971 ft | 408 kts | 284° |
| 2026-05-07 16:26 | 42.16490 | 10.97950 | 35972 ft | 409 kts | 284° |
| 2026-05-07 16:27 | 42.18504 | 10.90759 | 35972 ft | 410 kts | 284° |
| 2026-05-07 16:27 | 42.20516 | 10.83560 | 35975 ft | 410 kts | 284° |
| 2026-05-07 16:28 | 42.22524 | 10.76345 | 35975 ft | 411 kts | 284° |
| 2026-05-07 16:28 | 42.24537 | 10.69107 | 35972 ft | 412 kts | 284° |
| 2026-05-07 16:29 | 42.26596 | 10.61934 | 35962 ft | 417 kts | 289° |
| 2026-05-07 16:29 | 42.29829 | 10.55287 | 35972 ft | 431 kts | 302° |
| 2026-05-07 16:30 | 42.34231 | 10.49612 | 35976 ft | 440 kts | 310° |
| 2026-05-07 16:30 | 42.38843 | 10.44146 | 35979 ft | 441 kts | 310° |
| 2026-05-07 16:31 | 42.42671 | 10.39581 | 35975 ft | 441 kts | 310° |
| 2026-05-07 16:31 | 42.48000 | 10.33148 | 35974 ft | 441 kts | 310° |
| 2026-05-07 16:32 | 42.52576 | 10.27587 | 35982 ft | 441 kts | 309° |
| 2026-05-07 16:32 | 42.56374 | 10.22961 | 35977 ft | 442 kts | 309° |
| 2026-05-07 16:33 | 42.60950 | 10.17379 | 35981 ft | 442 kts | 309° |
| 2026-05-07 16:33 | 42.65519 | 10.11796 | 35986 ft | 442 kts | 309° |
| 2026-05-07 16:34 | 42.70092 | 10.06196 | 35990 ft | 442 kts | 309° |
| 2026-05-07 16:34 | 42.74663 | 10.00587 | 35979 ft | 442 kts | 309° |
| 2026-05-07 16:35 | 42.79196 | 9.95013 | 35984 ft | 442 kts | 309° |
| 2026-05-07 16:35 | 42.83756 | 9.89395 | 35981 ft | 441 kts | 309° |
| 2026-05-07 16:36 | 42.88308 | 9.83777 | 35980 ft | 441 kts | 309° |
| 2026-05-07 16:36 | 42.92854 | 9.78143 | 35985 ft | 440 kts | 308° |
| 2026-05-07 16:37 | 42.96554 | 9.71734 | 35989 ft | 423 kts | 291° |
| 2026-05-07 16:37 | 42.99012 | 9.64524 | 35987 ft | 418 kts | 287° |
| 2026-05-07 16:38 | 43.01430 | 9.57280 | 35980 ft | 419 kts | 288° |
| 2026-05-07 16:38 | 43.02663 | 9.53639 | 35562 ft | 427 kts | 288° |
| 2026-05-07 16:38 | 43.03916 | 9.49948 | 34996 ft | 426 kts | 288° |
| 2026-05-07 16:38 | 43.05151 | 9.46320 | 34343 ft | 426 kts | 288° |
| 2026-05-07 16:39 | 43.06400 | 9.42639 | 33626 ft | 426 kts | 288° |
| 2026-05-07 16:39 | 43.07647 | 9.38955 | 32856 ft | 427 kts | 288° |
| 2026-05-07 16:39 | 43.08893 | 9.35266 | 32107 ft | 427 kts | 288° |
| 2026-05-07 16:39 | 43.10142 | 9.31564 | 31363 ft | 428 kts | 288° |
| 2026-05-07 16:40 | 43.11385 | 9.27871 | 30601 ft | 428 kts | 288° |
| 2026-05-07 16:40 | 43.12633 | 9.24163 | 29793 ft | 429 kts | 288° |
| 2026-05-07 16:40 | 43.13884 | 9.20433 | 28878 ft | 430 kts | 288° |
| 2026-05-07 16:40 | 43.15133 | 9.16706 | 28004 ft | 430 kts | 288° |
| 2026-05-07 16:41 | 43.16377 | 9.12982 | 27100 ft | 431 kts | 289° |
| 2026-05-07 16:41 | 43.17627 | 9.09236 | 26163 ft | 433 kts | 289° |
| 2026-05-07 16:41 | 43.18877 | 9.05487 | 25413 ft | 431 kts | 289° |
| 2026-05-07 16:41 | 43.20105 | 9.01808 | 24759 ft | 427 kts | 289° |
| 2026-05-07 16:42 | 43.21333 | 8.98121 | 24112 ft | 423 kts | 289° |
| 2026-05-07 16:42 | 43.22550 | 8.94458 | 23432 ft | 421 kts | 289° |
| 2026-05-07 16:42 | 43.23761 | 8.90810 | 22696 ft | 417 kts | 290° |
| 2026-05-07 16:42 | 43.24961 | 8.87207 | 22050 ft | 412 kts | 290° |
| 2026-05-07 16:43 | 43.26148 | 8.83641 | 21401 ft | 408 kts | 290° |
| 2026-05-07 16:43 | 43.27319 | 8.80116 | 20754 ft | 404 kts | 290° |
| 2026-05-07 16:43 | 43.28481 | 8.76613 | 20124 ft | 401 kts | 290° |
| 2026-05-07 16:43 | 43.29616 | 8.73185 | 19497 ft | 397 kts | 290° |
| 2026-05-07 16:44 | 43.30757 | 8.69738 | 18890 ft | 395 kts | 290° |
| 2026-05-07 16:44 | 43.31900 | 8.66277 | 18282 ft | 392 kts | 290° |
| 2026-05-07 16:44 | 43.33021 | 8.62879 | 17588 ft | 390 kts | 290° |
| 2026-05-07 16:44 | 43.33882 | 8.59445 | 16939 ft | 382 kts | 277° |
| 2026-05-07 16:45 | 43.34011 | 8.55888 | 16721 ft | 365 kts | 264° |
| 2026-05-07 16:45 | 43.33747 | 8.52407 | 16468 ft | 373 kts | 261° |
| 2026-05-07 16:45 | 43.33412 | 8.48782 | 16196 ft | 388 kts | 261° |
| 2026-05-07 16:45 | 43.33065 | 8.45074 | 15911 ft | 393 kts | 261° |
| 2026-05-07 16:46 | 43.32730 | 8.41366 | 15622 ft | 389 kts | 261° |
| 2026-05-07 16:46 | 43.32410 | 8.37687 | 15351 ft | 387 kts | 262° |
| 2026-05-07 16:46 | 43.32096 | 8.34008 | 15081 ft | 386 kts | 262° |
| 2026-05-07 16:46 | 43.31787 | 8.30353 | 14813 ft | 386 kts | 262° |
| 2026-05-07 16:47 | 43.31481 | 8.26736 | 14546 ft | 385 kts | 262° |
| 2026-05-07 16:47 | 43.31173 | 8.23080 | 14268 ft | 385 kts | 262° |
| 2026-05-07 16:47 | 43.30862 | 8.19416 | 14011 ft | 385 kts | 262° |
| 2026-05-07 16:47 | 43.30549 | 8.15762 | 13737 ft | 385 kts | 262° |
| 2026-05-07 16:48 | 43.30345 | 8.12097 | 13418 ft | 386 kts | 271° |
| 2026-05-07 16:48 | 43.30863 | 8.08473 | 13147 ft | 388 kts | 288° |
| 2026-05-07 16:48 | 43.32075 | 8.05154 | 12882 ft | 388 kts | 297° |
| 2026-05-07 16:48 | 43.33451 | 8.01970 | 12601 ft | 387 kts | 298° |
| 2026-05-07 16:49 | 43.34800 | 7.98828 | 12330 ft | 384 kts | 297° |
| 2026-05-07 16:49 | 43.36129 | 7.95657 | 12059 ft | 381 kts | 297° |
| 2026-05-07 16:49 | 43.37439 | 7.92491 | 11777 ft | 370 kts | 297° |
| 2026-05-07 16:49 | 43.38668 | 7.89505 | 11522 ft | 358 kts | 296° |
| 2026-05-07 16:50 | 43.39873 | 7.86573 | 11280 ft | 346 kts | 296° |
| 2026-05-07 16:50 | 43.41043 | 7.83728 | 11041 ft | 336 kts | 296° |
| 2026-05-07 16:50 | 43.42095 | 7.80908 | 10792 ft | 325 kts | 286° |
| 2026-05-07 16:50 | 43.42469 | 7.77920 | 10594 ft | 312 kts | 271° |
| 2026-05-07 16:51 | 43.42557 | 7.74978 | 10381 ft | 304 kts | 270° |
| 2026-05-07 16:51 | 43.42590 | 7.72142 | 10180 ft | 296 kts | 269° |
| 2026-05-07 16:51 | 43.42596 | 7.69343 | 9973 ft | 289 kts | 268° |
| 2026-05-07 16:51 | 43.42606 | 7.66641 | 9956 ft | 276 kts | 269° |
| 2026-05-07 16:52 | 43.42607 | 7.64061 | 9935 ft | 263 kts | 268° |
| 2026-05-07 16:52 | 43.42621 | 7.61529 | 9491 ft | 266 kts | 269° |
| 2026-05-07 16:52 | 43.42639 | 7.59006 | 9216 ft | 263 kts | 269° |
| 2026-05-07 16:52 | 43.42672 | 7.56517 | 9023 ft | 258 kts | 269° |
| 2026-05-07 16:53 | 43.42694 | 7.54074 | 8833 ft | 253 kts | 269° |
| 2026-05-07 16:53 | 43.42718 | 7.51667 | 8654 ft | 250 kts | 269° |
| 2026-05-07 16:53 | 43.42751 | 7.49289 | 8474 ft | 247 kts | 269° |
| 2026-05-07 16:53 | 43.42754 | 7.46941 | 8301 ft | 243 kts | 269° |
| 2026-05-07 16:54 | 43.42781 | 7.44617 | 8139 ft | 244 kts | 269° |
| 2026-05-07 16:54 | 43.42811 | 7.42292 | 7986 ft | 242 kts | 269° |
| 2026-05-07 16:54 | 43.42848 | 7.39966 | 7633 ft | 244 kts | 269° |
| 2026-05-07 16:54 | 43.42884 | 7.37627 | 7351 ft | 244 kts | 270° |
| 2026-05-07 16:55 | 43.42928 | 7.35337 | 7111 ft | 242 kts | 270° |
| 2026-05-07 16:55 | 43.42982 | 7.33029 | 6833 ft | 241 kts | 271° |
| 2026-05-07 16:55 | 43.43076 | 7.30724 | 6592 ft | 240 kts | 271° |
| 2026-05-07 16:55 | 43.43172 | 7.28464 | 6428 ft | 235 kts | 274° |
| 2026-05-07 16:56 | 43.43295 | 7.26233 | 6215 ft | 232 kts | 275° |
| 2026-05-07 16:56 | 43.43529 | 7.24049 | 6102 ft | 226 kts | 278° |
| 2026-05-07 16:56 | 43.44066 | 7.19871 | 6007 ft | 223 kts | 278° |
| 2026-05-07 16:57 | 43.44336 | 7.17741 | 5837 ft | 227 kts | 278° |
| 2026-05-07 16:57 | 43.44602 | 7.15603 | 5681 ft | 230 kts | 278° |
| 2026-05-07 16:57 | 43.44873 | 7.13399 | 5511 ft | 230 kts | 278° |
| 2026-05-07 16:57 | 43.45133 | 7.11273 | 5326 ft | 227 kts | 278° |
| 2026-05-07 16:58 | 43.45390 | 7.09143 | 5151 ft | 224 kts | 278° |
| 2026-05-07 16:58 | 43.45641 | 7.07044 | 4985 ft | 220 kts | 278° |
| 2026-05-07 16:58 | 43.45887 | 7.04981 | 4814 ft | 217 kts | 278° |
| 2026-05-07 16:58 | 43.46128 | 7.02949 | 4654 ft | 213 kts | 278° |
| 2026-05-07 16:59 | 43.46386 | 7.00958 | 4504 ft | 211 kts | 286° |
| 2026-05-07 16:59 | 43.47168 | 6.99266 | 4348 ft | 213 kts | 316° |
| 2026-05-07 16:59 | 43.48517 | 6.98429 | 4173 ft | 222 kts | 354° |
| 2026-05-07 16:59 | 43.49979 | 6.99085 | 4055 ft | 229 kts | 36° |
| 2026-05-07 17:00 | 43.51089 | 7.00685 | 3977 ft | 232 kts | 46° |
| 2026-05-07 17:00 | 43.52182 | 7.02373 | 3696 ft | 241 kts | 44° |
| 2026-05-07 17:00 | 43.53340 | 7.04032 | 3400 ft | 245 kts | 41° |
| 2026-05-07 17:00 | 43.54547 | 7.05704 | 3083 ft | 246 kts | 41° |
| 2026-05-07 17:01 | 43.55747 | 7.07361 | 2756 ft | 241 kts | 41° |
| 2026-05-07 17:01 | 43.56895 | 7.08951 | 2440 ft | 225 kts | 42° |
| 2026-05-07 17:01 | 43.57959 | 7.10423 | 2135 ft | 210 kts | 41° |
| 2026-05-07 17:01 | 43.58957 | 7.11802 | 1931 ft | 195 kts | 42° |
| 2026-05-07 17:02 | 43.59880 | 7.13077 | 1606 ft | 182 kts | 42° |
| 2026-05-07 17:02 | 43.60735 | 7.14257 | 1327 ft | 168 kts | 45° |
| 2026-05-07 17:02 | 43.61544 | 7.15377 | 1087 ft | 162 kts | 47° |
| 2026-05-07 17:02 | 43.62321 | 7.16447 | 854 ft | 158 kts | 48° |
| 2026-05-07 17:03 | 43.63086 | 7.17540 | 602 ft | 157 kts | 49° |
| 2026-05-07 17:03 | 43.63842 | 7.18581 | 431 ft | 154 kts | 44° |
| 2026-05-07 17:03 | 43.64621 | 7.19644 | 245 ft | 156 kts | 49° |
| 2026-05-07 17:03 | 43.65387 | 7.20680 | 29 ft | 154 kts | 47° |
| 2026-05-07 17:04 | 43.66060 | 7.21611 | 16 ft | 111 kts | 44° |
| 2026-05-07 17:04 | 43.66496 | 7.22057 | 17 ft | 45 kts | 6° |
| 2026-05-07 17:04 | 43.66537 | 7.21911 | 18 ft | 22 kts | 206° |
| 2026-05-07 17:04 | 43.66416 | 7.21780 | 19 ft | 22 kts | 225° |
| 2026-05-07 17:05 | 43.66308 | 7.21636 | 16 ft | 21 kts | 224° |
| 2026-05-07 17:05 | 43.66205 | 7.21494 | 14 ft | 21 kts | 226° |
| 2026-05-07 17:05 | 43.66106 | 7.21355 | 15 ft | 20 kts | 225° |
| 2026-05-07 17:05 | 43.66008 | 7.21222 | 15 ft | 19 kts | 223° |
| 2026-05-07 17:06 | 43.65971 | 7.21069 | 18 ft | 19 kts | 291° |
| 2026-05-07 17:06 | 43.65971 | 7.20897 | 19 ft | 18 kts | 262° |
| 2026-05-07 17:06 | 43.65995 | 7.20735 | 20 ft | 10 kts | 281° |
| 2026-05-07 17:06 | 43.65995 | 7.20718 | 20 ft | 0 kts | 257° |